Waswanipi, Canada
Current Conditions -  °F | °C
As of 2:00 PM on Friday 24 Oct 2014 (Local Time) from CYNM Reporting Station
Clear Clear  
Wind Chill: 12°   Ceiling: Unl
Heat Index: 12°   Visibility: 9mi
Dew Point: -1°   Wind: 7mph
Humidity: 41%   Direction: 240°WSW
Pressure: 29.86"   Gusts: NA
Location:  49.65°N, 76.48°W
Report Text: CYNM 241800Z AUTO 24006KT 150V260 9SM CLR 12/M01 A2986 RMK ICG MISG SLP125
Loading
Personal Weather Stations






























Interactive Weather Map
Tropical Storm Tracking
New forecast layout! Learn more

10-Day Weather Forecast

Advertisements
Track Severe Weather on mobile